London Mills, Illinois
Current Conditions -  °F | °C
As of 2:15 AM on Thursday 29 Jan 2015 (Local Time) from KGBG Reporting Station
Clear Clear  
Wind Chill: 32°   Ceiling: Unl
Heat Index: 37°   Visibility: 10mi
Dew Point: 33°   Wind: 7mph
Humidity: 86%   Direction: 200°SSW
Pressure: 29.67"   Gusts: NA
Location:  40.71°N, 90.27°W
Report Text: KGBG 290815Z AUTO 20006KT 10SM CLR 03/01 A2967 RMK AO2 T00290007
Loading
Personal Weather Stations






























Interactive Weather Map New forecast layout! Learn more

10-Day Weather Forecast

Advertisements
Track Severe Weather on mobile